Time;durP1;ratioP1;P1;durP2;ratioP2;P2;SDS_P1;SDS_P2;PMS_P1;PMS_P2;Temp;Humidity;BMP_temperature;BMP_pressure;BME280_temperature;BME280_humidity;BME280_pressure;Samples;Min_cycle;Max_cycle;Signal;HPM_P1;HPM_P2
2022/06/06 00:00:38;;;;;;;11.32;7.03;;;;;;;;;;5094064;28;20117;-68
2022/06/06 00:03:05;;;;;;;;;;;;;;;;;;5094151;28;20079;-67
2022/06/06 00:05:31;;;;;;;12.60;7.93;;;;;;;;;;5093668;28;19966;-68
2022/06/06 00:07:58;;;;;;;12.43;9.00;;;;;;;;;;5093922;28;20453;-68
2022/06/06 00:10:25;;;;;;;14.50;10.02;;;;;;;;;;5093782;28;20109;-68
2022/06/06 00:12:52;;;;;;;11.30;8.18;;;;;;;;;;5093380;28;20090;-68
2022/06/06 00:15:18;;;;;;;15.45;10.25;;;;;;;;;;5093787;28;20070;-68
2022/06/06 00:17:44;;;;;;;10.88;7.53;;;;;;;;;;5093043;28;20080;-68
2022/06/06 00:20:11;;;;;;;11.68;7.80;;;;;;;;;;5093661;28;20468;-68
2022/06/06 00:22:38;;;;;;;11.75;7.93;;;;;;;;;;5093236;28;20074;-68
2022/06/06 00:25:04;;;;;;;9.93;7.45;;;;;;;;;;5093451;28;20094;-68
2022/06/06 00:27:31;;;;;;;9.70;7.15;;;;;;;;;;5093433;28;20048;-67
2022/06/06 00:29:57;;;;;;;13.20;8.75;;;;;;;;;;5093042;28;20040;-67
2022/06/06 00:35:09;;;;;;;12.43;8.05;;;;;;;;;;5093320;28;20080;-67
2022/06/06 00:37:36;;;;;;;11.43;7.22;;;;;;;;;;5093232;28;20044;-68
2022/06/06 00:40:03;;;;;;;11.17;7.57;;;;;;;;;;5092893;28;20083;-67
2022/06/06 00:42:31;;;;;;;14.55;9.52;;;;;;;;;;5093360;28;20316;-67
2022/06/06 00:45:16;;;;;;;11.95;7.97;;;;;;;;;;5092818;28;20479;-67
2022/06/06 00:47:44;;;;;;;12.38;7.88;;;;;;;;;;5093144;28;20452;-68
2022/06/06 00:50:16;;;;;;;11.80;7.97;;;;;;;;;;5092423;28;20090;-67
2022/06/06 00:52:44;;;;;;;14.65;9.82;;;;;;;;;;5093014;28;20079;-67
2022/06/06 00:55:12;;;;;;;12.93;8.10;;;;;;;;;;5092817;28;20079;-68
2022/06/06 00:57:43;;;;;;;9.77;7.43;;;;;;;;;;5092615;28;20090;-68
2022/06/06 01:00:12;;;;;;;12.57;8.93;;;;;;;;;;5090546;28;20123;-68
2022/06/06 01:02:42;;;;;;;13.13;8.95;;;;;;;;;;5072293;28;20079;-67
2022/06/06 01:05:09;;;;;;;15.30;9.82;;;;;;;;;;5088130;28;20062;-68
2022/06/06 01:07:36;;;;;;;26.40;10.88;;;;;;;;;;5092692;28;20083;-67
2022/06/06 01:10:02;;;;;;;15.32;10.52;;;;;;;;;;5092557;28;20079;-68
2022/06/06 01:12:31;;;;;;;15.25;10.90;;;;;;;;;;5092427;28;20091;-67
2022/06/06 01:15:04;;;;;;;17.55;11.65;;;;;;;;;;5090975;28;20101;-68
2022/06/06 01:17:33;;;;;;;18.85;13.95;;;;;;;;;;5091228;28;20080;-68
2022/06/06 01:20:03;;;;;;;14.93;10.82;;;;;;;;;;5092647;28;20040;-68
2022/06/06 01:22:56;;;;;;;17.23;12.95;;;;;;;;;;5092270;28;20051;-68
2022/06/06 01:25:22;;;;;;;8.10;7.20;;;;;;;;;;5092430;28;20079;-68
2022/06/06 01:28:01;;;;;;;8.98;6.80;;;;;;;;;;5090268;28;20551;-69
2022/06/06 01:30:31;;;;;;;6.20;5.70;;;;;;;;;;5084473;28;20094;-68
2022/06/06 01:32:59;;;;;;;5.95;5.38;;;;;;;;;;5092076;28;20500;-68
2022/06/06 01:35:27;;;;;;;7.05;6.35;;;;;;;;;;5092042;28;20044;-67
2022/06/06 01:37:54;;;;;;;7.30;6.63;;;;;;;;;;5090555;28;20112;-68
2022/06/06 01:40:21;;;;;;;7.53;6.60;;;;;;;;;;5092259;28;20090;-67
2022/06/06 01:42:56;;;;;;;6.78;6.07;;;;;;;;;;5092127;28;20458;-68
2022/06/06 01:45:52;;;;;;;7.13;6.43;;;;;;;;;;5091903;28;20109;-68
2022/06/06 01:48:23;;;;;;;6.88;6.20;;;;;;;;;;5091005;28;20087;-67
2022/06/06 01:50:50;;;;;;;7.75;6.95;;;;;;;;;;5092106;28;20090;-67
2022/06/06 01:53:18;;;;;;;7.93;7.13;;;;;;;;;;5092010;28;20131;-67
2022/06/06 01:55:46;;;;;;;9.45;8.02;;;;;;;;;;5091723;28;20094;-68
2022/06/06 01:58:18;;;;;;;10.18;8.65;;;;;;;;;;5092032;28;20450;-68
2022/06/06 02:00:44;;;;;;;9.07;7.47;;;;;;;;;;5091654;28;20079;-68
2022/06/06 02:03:11;;;;;;;7.80;6.65;;;;;;;;;;5091674;28;20052;-68
2022/06/06 02:05:38;;;;;;;6.97;6.00;;;;;;;;;;5091507;28;20083;-68
2022/06/06 02:08:06;;;;;;;10.32;7.63;;;;;;;;;;5091626;28;20090;-67
2022/06/06 02:10:32;;;;;;;8.07;6.97;;;;;;;;;;5091486;28;20051;-68
2022/06/06 02:12:59;;;;;;;7.60;6.50;;;;;;;;;;5091810;28;20048;-67
2022/06/06 02:15:26;;;;;;;6.68;6.00;;;;;;;;;;5091736;28;20090;-67
2022/06/06 02:17:53;;;;;;;7.80;6.70;;;;;;;;;;5091749;28;20146;-68
2022/06/06 02:20:21;;;;;;;8.52;7.68;;;;;;;;;;5091803;28;20304;-68
2022/06/06 02:22:48;;;;;;;7.53;6.40;;;;;;;;;;5091954;28;20072;-68
2022/06/06 02:25:15;;;;;;;8.38;6.93;;;;;;;;;;5091881;28;20059;-68
2022/06/06 02:27:42;;;;;;;6.70;6.00;;;;;;;;;;5091643;28;20067;-68
2022/06/06 02:30:10;;;;;;;7.80;6.70;;;;;;;;;;5091667;28;20109;-68
2022/06/06 02:32:37;;;;;;;7.20;5.90;;;;;;;;;;5091283;28;20453;-68
2022/06/06 02:35:03;;;;;;;9.50;7.00;;;;;;;;;;5091346;28;20087;-68
2022/06/06 02:37:31;;;;;;;7.18;5.65;;;;;;;;;;5091435;28;20102;-68
2022/06/06 02:39:57;;;;;;;6.55;5.72;;;;;;;;;;5092792;28;20070;-68
2022/06/06 02:42:24;;;;;;;6.68;5.97;;;;;;;;;;5095530;28;20105;-68
2022/06/06 02:44:50;;;;;;;8.02;6.40;;;;;;;;;;5094978;28;20143;-68
2022/06/06 02:47:16;;;;;;;6.45;5.85;;;;;;;;;;5095220;28;20847;-68
2022/06/06 02:49:43;;;;;;;6.40;5.40;;;;;;;;;;5095311;28;20083;-68
2022/06/06 02:52:09;;;;;;;5.25;4.75;;;;;;;;;;5095386;28;20047;-68
2022/06/06 02:54:36;;;;;;;6.72;5.88;;;;;;;;;;5095044;28;20105;-68
2022/06/06 02:57:03;;;;;;;6.80;5.90;;;;;;;;;;5094846;28;20581;-68
2022/06/06 02:59:31;;;;;;;6.50;5.93;;;;;;;;;;5094957;28;20044;-67
2022/06/06 03:01:57;;;;;;;6.88;6.18;;;;;;;;;;5094707;28;20043;-68
2022/06/06 03:04:24;;;;;;;7.63;6.93;;;;;;;;;;5095180;28;20058;-68
2022/06/06 03:07:03;;;;;;;7.97;7.18;;;;;;;;;;5094812;28;20075;-68
2022/06/06 03:09:32;;;;;;;8.35;7.55;;;;;;;;;;5094709;28;20087;-68
2022/06/06 03:12:04;;;;;;;8.02;7.32;;;;;;;;;;5094866;28;20086;-68
2022/06/06 03:14:47;;;;;;;9.30;8.30;;;;;;;;;;5094926;28;20079;-68
2022/06/06 03:23:08;;;;;;;8.40;7.60;;;;;;;;;;5094838;28;20079;-68
2022/06/06 03:25:48;;;;;;;8.50;7.53;;;;;;;;;;5093618;28;20079;-68
2022/06/06 03:28:20;;;;;;;9.13;7.97;;;;;;;;;;5094414;28;20055;-68
2022/06/06 03:30:50;;;;;;;10.05;9.05;;;;;;;;;;5094587;28;20469;-68
2022/06/06 03:33:19;;;;;;;9.35;8.35;;;;;;;;;;5094616;28;20486;-68
2022/06/06 03:35:52;;;;;;;8.80;8.00;;;;;;;;;;5094383;28;20093;-68
2022/06/06 03:38:33;;;;;;;9.07;8.18;;;;;;;;;;5094154;28;20075;-68
2022/06/06 03:41:06;;;;;;;8.73;7.78;;;;;;;;;;5094490;28;20082;-68
2022/06/06 03:43:53;;;;;;;8.38;7.53;;;;;;;;;;5094214;28;20085;-68
2022/06/06 03:46:35;;;;;;;8.75;7.90;;;;;;;;;;5094326;28;20122;-68
2022/06/06 03:49:22;;;;;;;8.75;7.88;;;;;;;;;;5093035;28;20106;-68
2022/06/06 03:52:11;;;;;;;8.02;7.22;;;;;;;;;;5091968;28;20117;-68
2022/06/06 03:54:38;;;;;;;8.43;7.63;;;;;;;;;;5092605;28;20079;-68
2022/06/06 03:57:14;;;;;;;7.97;7.22;;;;;;;;;;5094108;28;20086;-68
2022/06/06 03:59:42;;;;;;;8.48;7.57;;;;;;;;;;5093931;28;20127;-67
2022/06/06 04:02:09;;;;;;;;;;;;;;;;;;5094371;28;20457;-68
2022/06/06 04:04:35;;;;;;;9.55;8.07;;;;;;;;;;5092804;28;19928;-68
2022/06/06 04:07:03;;;;;;;9.75;8.75;;;;;;;;;;5093609;28;20040;-68
2022/06/06 04:09:33;;;;;;;10.05;9.05;;;;;;;;;;5093918;28;20044;-68
2022/06/06 04:11:59;;;;;;;12.05;9.20;;;;;;;;;;5093401;28;20066;-68
2022/06/06 04:14:29;;;;;;;11.23;9.20;;;;;;;;;;5093728;28;20078;-68
2022/06/06 04:16:59;;;;;;;9.25;8.27;;;;;;;;;;5093294;28;20487;-67
2022/06/06 04:19:28;;;;;;;9.07;8.18;;;;;;;;;;5093678;28;20098;-68
2022/06/06 04:22:10;;;;;;;9.90;9.00;;;;;;;;;;5093425;28;20135;-68
2022/06/06 04:25:01;;;;;;;9.30;8.40;;;;;;;;;;5093402;28;20519;-68
2022/06/06 04:27:33;;;;;;;8.05;7.25;;;;;;;;;;5093552;28;20051;-68
2022/06/06 04:30:00;;;;;;;8.38;7.57;;;;;;;;;;5093318;28;20101;-68
2022/06/06 04:32:33;;;;;;;8.85;7.70;;;;;;;;;;5093109;28;20412;-68
2022/06/06 04:34:59;;;;;;;7.57;6.90;;;;;;;;;;5093335;28;20084;-68
2022/06/06 04:37:34;;;;;;;8.02;7.22;;;;;;;;;;5093198;28;20075;-68
2022/06/06 04:40:07;;;;;;;8.27;7.45;;;;;;;;;;5093307;28;20048;-67
2022/06/06 04:42:52;;;;;;;8.75;7.97;;;;;;;;;;5093074;28;20083;-68
2022/06/06 04:45:23;;;;;;;8.57;7.70;;;;;;;;;;5092926;28;20106;-68
2022/06/06 04:47:50;;;;;;;8.82;7.93;;;;;;;;;;5092837;28;20074;-68
2022/06/06 04:50:19;;;;;;;8.45;7.65;;;;;;;;;;5093073;28;20071;-68
2022/06/06 04:52:53;;;;;;;8.13;7.35;;;;;;;;;;5092750;28;20081;-68
2022/06/06 04:55:20;;;;;;;8.93;7.38;;;;;;;;;;5092953;28;20079;-68
2022/06/06 04:57:49;;;;;;;8.20;7.50;;;;;;;;;;5092610;28;20044;-67
2022/06/06 05:00:15;;;;;;;7.78;7.07;;;;;;;;;;5092893;28;20051;-68
2022/06/06 05:02:42;;;;;;;8.32;7.53;;;;;;;;;;5092491;28;20074;-68
2022/06/06 05:05:09;;;;;;;9.25;8.40;;;;;;;;;;5092461;28;20048;-68
2022/06/06 05:07:36;;;;;;;;;;;;;;;;;;5093180;28;20060;-68
2022/06/06 05:10:05;;;;;;;8.68;7.72;;;;;;;;;;5092391;28;20011;-68
2022/06/06 05:12:39;;;;;;;9.35;8.07;;;;;;;;;;5092381;28;20059;-68
2022/06/06 05:15:09;;;;;;;8.07;7.38;;;;;;;;;;5092350;28;20090;-68
2022/06/06 05:17:38;;;;;;;9.57;8.63;;;;;;;;;;5092544;28;20670;-68
2022/06/06 05:20:25;;;;;;;9.25;8.32;;;;;;;;;;5092305;28;20071;-68
2022/06/06 05:22:54;;;;;;;10.65;9.65;;;;;;;;;;5092117;28;20048;-68
2022/06/06 05:25:29;;;;;;;11.57;10.48;;;;;;;;;;5092064;28;20040;-67
2022/06/06 05:28:20;;;;;;;12.43;11.13;;;;;;;;;;5092314;28;20067;-68
2022/06/06 05:31:07;;;;;;;16.95;11.80;;;;;;;;;;5092020;28;20075;-68
2022/06/06 05:33:34;;;;;;;13.77;12.35;;;;;;;;;;5090911;28;20051;-68
2022/06/06 05:36:25;;;;;;;13.45;11.98;;;;;;;;;;5091987;28;20087;-68
2022/06/06 05:39:10;;;;;;;14.30;11.77;;;;;;;;;;5092274;28;20047;-68
2022/06/06 05:41:39;;;;;;;12.35;11.25;;;;;;;;;;5092137;28;20047;-68
2022/06/06 05:44:06;;;;;;;12.75;11.50;;;;;;;;;;5091982;28;20114;-68
2022/06/06 05:46:40;;;;;;;13.90;12.65;;;;;;;;;;5092054;28;20059;-68
2022/06/06 05:49:09;;;;;;;13.32;12.23;;;;;;;;;;5091380;28;20479;-67
2022/06/06 05:51:36;;;;;;;12.93;11.63;;;;;;;;;;5091719;28;20083;-68
2022/06/06 05:54:11;;;;;;;12.40;11.15;;;;;;;;;;5092340;28;20083;-67
2022/06/06 05:56:53;;;;;;;11.77;10.57;;;;;;;;;;5091769;28;20143;-68
2022/06/06 05:59:41;;;;;;;11.75;10.65;;;;;;;;;;5092025;28;20056;-68
2022/06/06 06:02:26;;;;;;;10.65;9.65;;;;;;;;;;5071448;28;20480;-68
2022/06/06 06:05:02;;;;;;;11.98;10.55;;;;;;;;;;5088533;28;20127;-68
2022/06/06 06:07:28;;;;;;;11.05;10.07;;;;;;;;;;5091920;28;20491;-68
2022/06/06 06:10:04;;;;;;;10.40;9.45;;;;;;;;;;5090884;28;20051;-67
2022/06/06 06:12:39;;;;;;;11.18;10.20;;;;;;;;;;5091504;28;20091;-67
2022/06/06 06:15:35;;;;;;;10.85;9.85;;;;;;;;;;5092725;28;20134;-68
2022/06/06 06:18:07;;;;;;;11.90;10.73;;;;;;;;;;5094083;28;20121;-68
2022/06/06 06:20:36;;;;;;;10.55;9.55;;;;;;;;;;5094916;28;20457;-68
2022/06/06 06:23:05;;;;;;;10.40;9.50;;;;;;;;;;5095065;28;20411;-68
2022/06/06 06:25:35;;;;;;;10.63;9.50;;;;;;;;;;5094159;28;20048;-68
2022/06/06 06:28:04;;;;;;;9.40;8.60;;;;;;;;;;5094379;28;20097;-67
2022/06/06 06:30:39;;;;;;;9.07;8.27;;;;;;;;;;5094685;28;20504;-68
2022/06/06 06:33:21;;;;;;;9.63;8.73;;;;;;;;;;5094357;28;20083;-68
2022/06/06 06:35:50;;;;;;;8.43;7.63;;;;;;;;;;5095190;28;20044;-68
2022/06/06 06:38:23;;;;;;;8.48;7.68;;;;;;;;;;5094177;28;20071;-68
2022/06/06 06:40:56;;;;;;;8.50;7.80;;;;;;;;;;5094661;28;20633;-68
2022/06/06 06:43:42;;;;;;;8.05;7.38;;;;;;;;;;5095138;28;20453;-68
2022/06/06 06:46:10;;;;;;;;;;;;;;;;;;5095358;28;20139;-67
2022/06/06 06:48:37;;;;;;;7.18;6.57;;;;;;;;;;5094822;28;19963;-67
2022/06/06 06:51:06;;;;;;;7.60;6.97;;;;;;;;;;5095139;28;20076;-67
2022/06/06 06:53:36;;;;;;;7.13;6.63;;;;;;;;;;5094817;28;20526;-67
2022/06/06 06:56:02;;;;;;;6.72;6.18;;;;;;;;;;5094960;28;20056;-68
2022/06/06 06:58:44;;;;;;;7.93;7.15;;;;;;;;;;5066262;28;20059;-68
2022/06/06 07:01:16;;;;;;;6.57;6.03;;;;;;;;;;5094921;28;20080;-68
2022/06/06 07:09:41;;;;;;;6.28;5.78;;;;;;;;;;5110213;28;20087;-68
2022/06/06 07:12:10;;;;;;;6.10;5.63;;;;;;;;;;5094681;28;20068;-68
2022/06/06 07:14:43;;;;;;;6.07;5.68;;;;;;;;;;5093730;28;20091;-68
2022/06/06 07:17:10;;;;;;;6.40;6.00;;;;;;;;;;5094565;28;20079;-68
2022/06/06 07:19:37;;;;;;;;;;;;;;;;;;5094527;28;20553;-68
2022/06/06 07:22:03;;;;;;;6.40;5.83;;;;;;;;;;5094737;28;19919;-68
2022/06/06 07:24:30;;;;;;;6.13;5.72;;;;;;;;;;5094472;28;20052;-68
2022/06/06 07:26:58;;;;;;;6.65;6.00;;;;;;;;;;5093014;28;20091;-69
2022/06/06 07:29:25;;;;;;;5.70;5.30;;;;;;;;;;5092411;28;20090;-68
2022/06/06 07:32:10;;;;;;;5.82;5.32;;;;;;;;;;5094667;28;20044;-68
2022/06/06 07:34:37;;;;;;;5.40;5.00;;;;;;;;;;5093578;28;20135;-68
2022/06/06 07:37:04;;;;;;;5.38;4.97;;;;;;;;;;5094435;28;20040;-68
2022/06/06 07:39:49;;;;;;;5.22;4.78;;;;;;;;;;5093767;28;20079;-68
2022/06/06 07:42:22;;;;;;;29.27;20.73;;;;;;;;;;5093533;28;20109;-68
2022/06/06 07:44:51;;;;;;;13.30;11.18;;;;;;;;;;5093204;28;20059;-68
2022/06/06 07:47:38;;;;;;;7.97;7.18;;;;;;;;;;5094105;28;20451;-68
2022/06/06 07:50:10;;;;;;;12.90;8.95;;;;;;;;;;5093471;28;20083;-69
2022/06/06 07:52:36;;;;;;;7.65;6.90;;;;;;;;;;5094320;28;20052;-68
2022/06/06 07:55:12;;;;;;;8.07;7.25;;;;;;;;;;5093799;28;20074;-68
2022/06/06 07:57:47;;;;;;;6.03;5.53;;;;;;;;;;5093363;28;20550;-68
2022/06/06 08:00:18;;;;;;;5.82;5.32;;;;;;;;;;5093480;28;20040;-68
2022/06/06 08:03:05;;;;;;;6.28;5.68;;;;;;;;;;5093673;28;20103;-68
2022/06/06 08:05:38;;;;;;;7.00;5.68;;;;;;;;;;5092408;28;20467;-69
2022/06/06 08:08:11;;;;;;;6.28;5.50;;;;;;;;;;5094000;28;20082;-68
2022/06/06 08:10:37;;;;;;;7.35;5.40;;;;;;;;;;5092964;28;20056;-68
2022/06/06 08:13:23;;;;;;;10.20;7.57;;;;;;;;;;5093069;28;20066;-68
2022/06/06 08:15:56;;;;;;;11.30;9.15;;;;;;;;;;5092931;28;20312;-68
2022/06/06 08:18:41;;;;;;;10.40;9.38;;;;;;;;;;5092783;28;20075;-68
2022/06/06 08:21:23;;;;;;;8.18;7.47;;;;;;;;;;5093095;28;20119;-68
2022/06/06 08:23:52;;;;;;;12.18;10.23;;;;;;;;;;5092109;28;20451;-68
2022/06/06 08:26:19;;;;;;;9.88;8.18;;;;;;;;;;5093140;28;20492;-68
2022/06/06 08:28:45;;;;;;;8.27;6.25;;;;;;;;;;5093242;28;20083;-69
2022/06/06 08:31:12;;;;;;;4.97;4.57;;;;;;;;;;5092557;28;20048;-68
2022/06/06 08:33:38;;;;;;;7.25;5.95;;;;;;;;;;5093423;28;20147;-68
2022/06/06 08:36:11;;;;;;;7.00;5.40;;;;;;;;;;5093282;28;20502;-68
2022/06/06 08:39:00;;;;;;;5.10;4.43;;;;;;;;;;5092807;28;20100;-68
2022/06/06 08:41:30;;;;;;;5.68;5.07;;;;;;;;;;5093279;28;20101;-68
2022/06/06 08:43:59;;;;;;;6.85;5.95;;;;;;;;;;5092776;28;20515;-68
2022/06/06 08:46:38;;;;;;;4.38;3.97;;;;;;;;;;5093187;28;20092;-68
2022/06/06 08:52:11;;;;;;;4.38;3.80;;;;;;;;;;5093006;28;20080;-68
2022/06/06 08:54:56;;;;;;;4.15;3.75;;;;;;;;;;5092145;28;20052;-68
2022/06/06 08:57:41;;;;;;;3.45;3.03;;;;;;;;;;5093075;28;20091;-69
2022/06/06 09:00:07;;;;;;;4.32;3.92;;;;;;;;;;5092301;28;20092;-69
2022/06/06 09:02:47;;;;;;;5.88;5.28;;;;;;;;;;5092800;28;20127;-68
2022/06/06 09:05:26;;;;;;;4.30;3.92;;;;;;;;;;5092591;28;20469;-69
2022/06/06 09:08:11;;;;;;;6.15;4.28;;;;;;;;;;5091203;28;20051;-69
2022/06/06 09:11:07;;;;;;;6.15;5.57;;;;;;;;;;5092358;28;20555;-69
2022/06/06 09:13:42;;;;;;;5.13;4.65;;;;;;;;;;5092759;28;20457;-69
2022/06/06 09:16:16;;;;;;;4.93;4.50;;;;;;;;;;5090832;28;20048;-68
2022/06/06 09:19:01;;;;;;;4.63;4.18;;;;;;;;;;5092466;28;20070;-68
2022/06/06 09:22:03;;;;;;;5.28;4.78;;;;;;;;;;5092557;28;20055;-68
2022/06/06 09:24:30;;;;;;;4.72;4.10;;;;;;;;;;5084104;28;20044;-68
2022/06/06 09:27:11;;;;;;;4.72;4.32;;;;;;;;;;5080845;28;20536;-67
2022/06/06 09:29:41;;;;;;;5.25;4.75;;;;;;;;;;5082517;28;20460;-68
2022/06/06 09:32:16;;;;;;;8.18;4.60;;;;;;;;;;5075351;28;20056;-68
2022/06/06 09:35:12;;;;;;;4.13;3.42;;;;;;;;;;5085581;28;20080;-67
2022/06/06 09:37:44;;;;;;;4.13;3.65;;;;;;;;;;5090555;28;20102;-68
2022/06/06 09:40:17;;;;;;;2.80;2.53;;;;;;;;;;5089316;28;20075;-68
2022/06/06 09:43:02;;;;;;;4.82;3.15;;;;;;;;;;5088358;28;20044;-68
2022/06/06 09:45:53;;;;;;;2.53;2.30;;;;;;;;;;5065251;28;20083;-69
2022/06/06 09:48:38;;;;;;;3.95;2.22;;;;;;;;;;5068520;28;20054;-69
2022/06/06 09:51:20;;;;;;;3.60;3.30;;;;;;;;;;5091010;28;20087;-68
2022/06/06 09:59:44;;;;;;;4.05;2.10;;;;;;;;;;5091139;28;20080;-70
2022/06/06 10:02:10;;;;;;;2.42;1.65;;;;;;;;;;5091393;28;20086;-70
2022/06/06 10:04:49;;;;;;;2.00;1.80;;;;;;;;;;5091127;28;20548;-69
2022/06/06 10:07:18;;;;;;;1.58;1.48;;;;;;;;;;5091099;28;20072;-69
2022/06/06 10:10:03;;;;;;;1.73;1.63;;;;;;;;;;5091110;28;20083;-70
2022/06/06 10:12:39;;;;;;;1.42;1.30;;;;;;;;;;5091291;28;20094;-69
2022/06/06 10:15:19;;;;;;;5.13;1.83;;;;;;;;;;5090819;28;20072;-69
2022/06/06 10:17:45;;;;;;;4.43;2.40;;;;;;;;;;5091305;28;20087;-69
2022/06/06 10:20:14;;;;;;;3.55;1.67;;;;;;;;;;5080373;28;20044;-70
2022/06/06 10:22:41;;;;;;;1.42;1.00;;;;;;;;;;5080554;28;20123;-70
2022/06/06 10:25:14;;;;;;;2.15;0.98;;;;;;;;;;5087529;28;20565;-70
2022/06/06 10:27:41;;;;;;;1.08;0.70;;;;;;;;;;5091241;28;20101;-69
2022/06/06 10:30:22;;;;;;;0.70;0.70;;;;;;;;;;5090913;28;20083;-69
2022/06/06 10:33:07;;;;;;;2.15;0.80;;;;;;;;;;5091130;28;20098;-70
2022/06/06 10:35:36;;;;;;;2.75;0.80;;;;;;;;;;5089581;28;20048;-70
2022/06/06 10:38:09;;;;;;;2.15;1.00;;;;;;;;;;5090911;28;20048;-70
2022/06/06 10:40:48;;;;;;;0.73;0.55;;;;;;;;;;5089135;28;20087;-70
2022/06/06 10:43:23;;;;;;;1.75;1.15;;;;;;;;;;5063450;28;20097;-70
2022/06/06 10:45:58;;;;;;;3.17;0.90;;;;;;;;;;5090755;28;20056;-69
2022/06/06 10:48:43;;;;;;;1.50;0.50;;;;;;;;;;5091160;28;20048;-70
2022/06/06 10:54:01;;;;;;;1.52;0.70;;;;;;;;;;5090990;28;20083;-68
2022/06/06 10:56:40;;;;;;;2.53;1.27;;;;;;;;;;5090545;28;20519;-69
2022/06/06 10:59:22;;;;;;;2.97;1.20;;;;;;;;;;5090340;28;20075;-67
2022/06/06 11:01:52;;;;;;;1.98;0.80;;;;;;;;;;5092781;28;20080;-68
2022/06/06 11:04:21;;;;;;;1.90;0.70;;;;;;;;;;5094296;28;20052;-68
2022/06/06 11:06:48;;;;;;;1.48;1.38;;;;;;;;;;5094107;28;20076;-67
2022/06/06 11:09:33;;;;;;;1.08;1.00;;;;;;;;;;5094821;28;20078;-68
2022/06/06 11:12:05;;;;;;;1.33;0.90;;;;;;;;;;5093356;28;20090;-68
2022/06/06 11:14:32;;;;;;;2.35;1.35;;;;;;;;;;5094776;28;20083;-68
2022/06/06 11:17:22;;;;;;;1.30;1.20;;;;;;;;;;5083613;28;20052;-68
2022/06/06 11:19:51;;;;;;;2.47;1.45;;;;;;;;;;5093352;28;20080;-68
2022/06/06 11:22:21;;;;;;;2.33;1.48;;;;;;;;;;5094780;28;20098;-68
2022/06/06 11:24:59;;;;;;;1.70;1.60;;;;;;;;;;5092396;28;20477;-68
2022/06/06 11:27:41;;;;;;;2.80;1.23;;;;;;;;;;5090673;28;20427;-68
2022/06/06 11:30:13;;;;;;;1.02;1.02;;;;;;;;;;5094232;28;20047;-68
2022/06/06 11:32:40;;;;;;;1.60;1.48;;;;;;;;;;5094151;28;20079;-68
2022/06/06 11:35:12;;;;;;;0.80;0.80;;;;;;;;;;5093562;28;20058;-68
2022/06/06 11:37:57;;;;;;;2.03;1.13;;;;;;;;;;5087702;28;20312;-68
2022/06/06 11:40:45;;;;;;;1.67;1.50;;;;;;;;;;5094032;28;20048;-68
2022/06/06 11:43:24;;;;;;;3.42;1.70;;;;;;;;;;5094015;28;20128;-68
2022/06/06 11:45:50;;;;;;;1.70;1.60;;;;;;;;;;5087944;28;20061;-75
2022/06/06 11:48:26;;;;;;;0.90;0.90;;;;;;;;;;5071372;28;20056;-77
2022/06/06 11:51:03;;;;;;;4.93;2.00;;;;;;;;;;5059579;28;20476;-75
2022/06/06 11:53:32;;;;;;;1.80;1.45;;;;;;;;;;5071540;28;20066;-76
2022/06/06 11:56:17;;;;;;;1.77;1.40;;;;;;;;;;5073504;28;20471;-74
2022/06/06 11:58:52;;;;;;;2.97;1.60;;;;;;;;;;5072944;28;20052;-61
2022/06/06 12:01:28;;;;;;;2.55;1.55;;;;;;;;;;5073391;28;20130;-61
2022/06/06 12:04:18;;;;;;;2.65;1.25;;;;;;;;;;5053241;28;20076;-61
2022/06/06 12:07:15;;;;;;;3.67;2.33;;;;;;;;;;5061588;28;20075;-62
2022/06/06 12:09:44;;;;;;;2.25;2.05;;;;;;;;;;5062583;28;20076;-62
2022/06/06 12:12:30;;;;;;;2.30;2.20;;;;;;;;;;5070493;28;20080;-61
2022/06/06 12:14:59;;;;;;;3.33;2.03;;;;;;;;;;5072953;28;20463;-61
2022/06/06 12:17:25;;;;;;;2.03;1.83;;;;;;;;;;5073088;28;20075;-61
2022/06/06 12:19:58;;;;;;;2.53;2.03;;;;;;;;;;5070145;28;20131;-61
2022/06/06 12:22:33;;;;;;;2.42;2.10;;;;;;;;;;5057993;28;20048;-62
2022/06/06 12:25:10;;;;;;;4.60;2.25;;;;;;;;;;5072510;28;20082;-61
2022/06/06 12:27:46;;;;;;;2.92;1.95;;;;;;;;;;5059175;28;20076;-62
2022/06/06 12:30:24;;;;;;;2.10;1.90;;;;;;;;;;5072712;28;20082;-62
2022/06/06 12:32:54;;;;;;;2.33;1.80;;;;;;;;;;5053568;28;20045;-62
2022/06/06 12:35:20;;;;;;;1.98;1.40;;;;;;;;;;5058395;28;20522;-62
2022/06/06 12:38:05;;;;;;;2.17;1.90;;;;;;;;;;5072528;28;20086;-61
2022/06/06 12:40:34;;;;;;;3.47;1.58;;;;;;;;;;5072432;28;20136;-62
2022/06/06 12:43:16;;;;;;;1.38;1.15;;;;;;;;;;5072503;28;20476;-62
2022/06/06 12:45:45;;;;;;;2.25;1.25;;;;;;;;;;5079281;28;20075;-61
2022/06/06 12:48:22;;;;;;;1.27;1.02;;;;;;;;;;5092084;28;20556;-61
2022/06/06 12:50:48;;;;;;;2.22;1.30;;;;;;;;;;5073527;28;20082;-62
2022/06/06 12:53:24;;;;;;;1.52;1.42;;;;;;;;;;5072066;28;20522;-62
2022/06/06 12:58:58;;;;;;;2.20;1.80;;;;;;;;;;5074283;28;20521;-61
2022/06/06 13:01:37;;;;;;;2.58;1.50;;;;;;;;;;5070429;28;20072;-61
2022/06/06 13:04:09;;;;;;;4.03;2.83;;;;;;;;;;5072134;28;20136;-61
2022/06/06 13:06:56;;;;;;;4.55;2.58;;;;;;;;;;5072283;28;20068;-62
2022/06/06 13:09:33;;;;;;;1.92;1.67;;;;;;;;;;5071716;28;20507;-62
2022/06/06 13:12:00;;;;;;;;;;;;;;;;;;5070372;28;20091;-61
2022/06/06 13:14:45;;;;;;;2.63;1.03;;;;;;;;;;5071573;28;19956;-62
2022/06/06 13:17:37;;;;;;;1.77;0.98;;;;;;;;;;5071931;28;20098;-62
2022/06/06 13:20:06;;;;;;;1.30;1.20;;;;;;;;;;5071696;28;20135;-61
2022/06/06 13:22:51;;;;;;;1.85;1.50;;;;;;;;;;5092060;28;20086;-61
2022/06/06 13:25:21;;;;;;;1.35;0.90;;;;;;;;;;5091886;28;20076;-62
2022/06/06 13:27:59;;;;;;;3.08;2.88;;;;;;;;;;5091686;28;20086;-62
2022/06/06 13:30:33;;;;;;;4.15;3.70;;;;;;;;;;5091412;28;20051;-62
2022/06/06 13:33:31;;;;;;;2.78;1.20;;;;;;;;;;5091734;28;20512;-62
2022/06/06 13:36:05;;;;;;;10.38;6.72;;;;;;;;;;5091843;28;20105;-62
2022/06/06 13:38:34;;;;;;;4.43;2.50;;;;;;;;;;5091640;28;20048;-62
2022/06/06 13:41:12;;;;;;;2.03;1.40;;;;;;;;;;5072461;28;20087;-62
2022/06/06 13:43:55;;;;;;;1.27;1.17;;;;;;;;;;5091420;28;20048;-62
2022/06/06 13:46:29;;;;;;;1.85;1.70;;;;;;;;;;5087180;28;20101;-62
2022/06/06 13:49:02;;;;;;;2.95;1.10;;;;;;;;;;5091081;28;20093;-61
2022/06/06 13:51:50;;;;;;;2.88;1.33;;;;;;;;;;5091200;28;20083;-62
2022/06/06 13:54:33;;;;;;;1.85;1.23;;;;;;;;;;5091485;28;20048;-62
2022/06/06 13:57:03;;;;;;;1.50;0.93;;;;;;;;;;5090575;28;20560;-62
2022/06/06 13:59:32;;;;;;;3.05;1.35;;;;;;;;;;5063022;28;20491;-62
2022/06/06 14:02:06;;;;;;;2.47;2.10;;;;;;;;;;5090880;28;20557;-61
2022/06/06 14:04:51;;;;;;;1.23;1.20;;;;;;;;;;5090673;28;20496;-62
2022/06/06 14:07:36;;;;;;;1.20;1.10;;;;;;;;;;5090536;28;20122;-62
2022/06/06 14:10:08;;;;;;;0.93;0.93;;;;;;;;;;5091297;28;20102;-72
2022/06/06 14:12:53;;;;;;;1.08;1.00;;;;;;;;;;5085381;28;20091;-72
2022/06/06 14:15:20;;;;;;;4.05;1.25;;;;;;;;;;5083795;28;20068;-72
2022/06/06 14:17:57;;;;;;;0.90;0.90;;;;;;;;;;5091625;28;20079;-72
2022/06/06 14:20:44;;;;;;;0.85;0.85;;;;;;;;;;5091381;28;20087;-72
2022/06/06 14:23:22;;;;;;;1.13;0.98;;;;;;;;;;5083139;28;20086;-69
2022/06/06 14:26:11;;;;;;;1.38;0.90;;;;;;;;;;5087697;28;20079;-70
2022/06/06 14:28:42;;;;;;;1.95;0.90;;;;;;;;;;5090863;28;20083;-69
2022/06/06 14:31:25;;;;;;;3.17;1.50;;;;;;;;;;5090938;28;20130;-69
2022/06/06 14:33:53;;;;;;;3.92;2.58;;;;;;;;;;5090871;28;20048;-69
2022/06/06 14:36:21;;;;;;;1.88;1.33;;;;;;;;;;5092136;28;20500;-69
2022/06/06 14:38:54;;;;;;;1.40;1.27;;;;;;;;;;5094093;28;20080;-70
2022/06/06 14:41:23;;;;;;;2.92;1.02;;;;;;;;;;5094768;28;20097;-70
2022/06/06 14:43:56;;;;;;;1.52;1.42;;;;;;;;;;5094669;28;20044;-70
2022/06/06 14:46:23;;;;;;;1.23;0.88;;;;;;;;;;5095111;28;20072;-70
2022/06/06 14:48:53;;;;;;;2.00;0.75;;;;;;;;;;5094196;28;20460;-69
2022/06/06 14:51:22;;;;;;;0.75;0.75;;;;;;;;;;5094414;28;20056;-70
2022/06/06 14:53:50;;;;;;;1.20;0.70;;;;;;;;;;5094695;28;20071;-70
2022/06/06 14:56:19;;;;;;;1.60;0.65;;;;;;;;;;5094231;28;20071;-70
2022/06/06 14:58:52;;;;;;;1.77;0.70;;;;;;;;;;5094230;28;20563;-69
2022/06/06 15:01:20;;;;;;;1.02;0.88;;;;;;;;;;5093477;28;20085;-70
2022/06/06 15:03:48;;;;;;;1.13;0.70;;;;;;;;;;5093971;28;20040;-70
2022/06/06 15:06:25;;;;;;;1.75;1.10;;;;;;;;;;5089120;28;20052;-73
2022/06/06 15:09:05;;;;;;;1.98;1.60;;;;;;;;;;5088178;28;20072;-72
2022/06/06 15:11:32;;;;;;;0.80;0.80;;;;;;;;;;5093578;28;20567;-72
2022/06/06 15:14:00;;;;;;;1.35;0.82;;;;;;;;;;5093782;28;20048;-72
2022/06/06 15:16:28;;;;;;;1.65;0.70;;;;;;;;;;5093274;28;20062;-72
2022/06/06 15:18:56;;;;;;;1.70;0.55;;;;;;;;;;5094596;28;20385;-72
2022/06/06 15:21:24;;;;;;;1.77;0.70;;;;;;;;;;5094585;28;20123;-73
2022/06/06 15:23:53;;;;;;;0.65;0.65;;;;;;;;;;5094846;28;20048;-72
2022/06/06 15:26:32;;;;;;;1.00;0.80;;;;;;;;;;5094489;28;20072;-73
2022/06/06 15:29:22;;;;;;;1.83;0.73;;;;;;;;;;5095139;28;20048;-72
2022/06/06 15:32:02;;;;;;;1.55;0.70;;;;;;;;;;5093326;28;20090;-72
2022/06/06 15:34:41;;;;;;;1.30;0.57;;;;;;;;;;5094559;28;20389;-73
2022/06/06 15:37:08;;;;;;;3.53;0.70;;;;;;;;;;5094371;28;20555;-73
2022/06/06 15:39:37;;;;;;;0.50;0.50;;;;;;;;;;5094418;28;20040;-73
2022/06/06 15:42:12;;;;;;;0.50;0.50;;;;;;;;;;5094250;28;20507;-73
2022/06/06 15:44:39;;;;;;;3.50;0.88;;;;;;;;;;5092851;28;20415;-73
2022/06/06 15:47:11;;;;;;;0.98;0.65;;;;;;;;;;5093281;28;20052;-73